createdAt,value
2022-12-20T00:12:26.687Z,3316.83217
2022-12-20T00:27:28.518Z,3119.90735
2022-12-20T00:42:30.368Z,2954.79656
2022-12-20T00:57:32.215Z,2997.76335
2022-12-20T01:12:34.075Z,2958.05793
2022-12-20T01:27:35.919Z,2841.99416
2022-12-20T01:42:37.781Z,3123.54361
2022-12-20T01:57:39.621Z,3276.28411
2022-12-20T02:12:41.477Z,3451.38491
2022-12-20T02:27:43.355Z,3462.53279
2022-12-20T02:42:45.222Z,3160.37784
2022-12-20T02:57:47.101Z,3149.23668
2022-12-20T03:12:48.963Z,3091.11928
2022-12-20T03:27:50.793Z,3194.27939
2022-12-20T03:42:52.623Z,3192.3769
2022-12-20T03:57:54.444Z,3331.26214
2022-12-20T04:12:56.276Z,3280.29424
2022-12-20T04:27:58.118Z,3145.54039
2022-12-20T04:42:59.982Z,3084.00509
2022-12-20T04:58:07.208Z,2994.41389
2022-12-20T05:13:09.699Z,3127.18835
2022-12-20T05:28:11.524Z,3316.83217
2022-12-20T05:43:13.380Z,3232.8111
2022-12-20T05:58:15.234Z,3409.6697
2022-12-20T06:13:17.146Z,3582.88819
2022-12-20T06:28:19.024Z,3542.63103
2022-12-20T06:43:20.903Z,3252.42767
2022-12-20T06:58:22.820Z,2977.77831
2022-12-20T07:13:24.663Z,2720.81271
2022-12-20T07:28:27.949Z,2486.08586
2022-12-20T07:43:29.795Z,1469.29876
2022-12-20T07:58:31.658Z,1711.36703
2022-12-20T08:13:33.502Z,2012.01251
2022-12-20T08:28:35.353Z,2140.57558
2022-12-20T08:43:37.220Z,1870.20287
2022-12-20T08:58:39.083Z,1797.45187
2022-12-20T09:13:44.141Z,1805.93042
2022-12-20T09:28:46.460Z,2047.3649
2022-12-20T09:43:48.449Z,2203.94787
2022-12-20T09:58:50.245Z,2330.43529
2022-12-20T10:13:52.120Z,2363.31621
2022-12-20T10:28:54.627Z,2294.52106
2022-12-20T10:43:56.708Z,2235.1965
2022-12-20T10:58:58.575Z,2196.72182
2022-12-20T11:14:00.407Z,2175.32518
2022-12-20T11:29:02.290Z,2077.51988
2022-12-20T11:44:25.899Z,2045.80203
2022-12-20T11:59:28.752Z,1180.61724
2022-12-20T12:14:30.669Z,1727.91797
2022-12-20T12:29:32.579Z,2238.93117
2022-12-20T12:44:34.532Z,2701.61342
2022-12-20T12:59:36.447Z,2688.06471
2022-12-20T13:14:38.345Z,2449.72629
2022-12-20T13:29:40.240Z,2648.22186
2022-12-20T13:44:42.188Z,2436.36415
2022-12-20T13:59:44.135Z,2380.10708
2022-12-20T14:14:46.064Z,2405.74557
2022-12-20T14:29:47.995Z,2342.65785
2022-12-20T14:44:49.905Z,2322.35753
2022-12-20T14:59:51.821Z,2596.89974
2022-12-20T15:14:53.800Z,2704.33957
2022-12-20T15:29:55.780Z,2785.86331
2022-12-20T15:44:57.757Z,2806.28325
2022-12-20T16:00:02.216Z,2754.36846
2022-12-20T16:15:05.300Z,2872.45498
2022-12-20T16:30:07.210Z,2845.01114
2022-12-20T16:45:09.118Z,2875.53701
2022-12-20T17:00:11.017Z,2935.37841
2022-12-20T17:15:12.940Z,2987.73738
2022-12-20T17:30:14.917Z,3041.99821
2022-12-20T17:45:16.813Z,2189.54299
2022-12-20T18:00:18.798Z,2338.56944
2022-12-20T18:15:20.731Z,1676.04802
2022-12-20T18:30:22.682Z,1664.59677
2022-12-20T18:45:24.651Z,1911.55542
2022-12-20T19:00:26.577Z,2302.40601
2022-12-20T19:15:28.668Z,2318.33961
2022-12-20T19:30:30.597Z,2280.85157
2022-12-20T19:45:32.562Z,2454.21297
2022-12-20T20:00:34.544Z,2760.04172
2022-12-20T20:15:36.524Z,2818.08675
2022-12-20T20:30:38.469Z,2992.74197
2022-12-20T20:45:40.390Z,3036.82768
2022-12-20T21:00:42.312Z,3043.72564
2022-12-20T21:15:44.354Z,3215.35741
2022-12-20T21:30:46.323Z,3061.10842
2022-12-20T21:45:48.240Z,3162.24237
2022-12-20T22:00:54.508Z,3294.40737
2022-12-20T22:15:57.194Z,3379.57174
2022-12-20T22:30:59.098Z,3433.69684
2022-12-20T22:46:01.394Z,3526.31628
2022-12-20T23:01:03.358Z,3549.66937
2022-12-20T23:16:05.373Z,3526.31628
2022-12-20T23:31:07.364Z,3774.64838
2022-12-20T23:46:09.483Z,3706.77781
